Time;durP1;ratioP1;P1;durP2;ratioP2;P2;SDS_P1;SDS_P2;PMS_P1;PMS_P2;Temp;Humidity;BMP_temperature;BMP_pressure;BME280_temperature;BME280_humidity;BME280_pressure;Samples;Min_cycle;Max_cycle;Signal;HPM_P1;HPM_P2
2021/07/30 00:01:59;;;;;;;4.90;2.17;;;;;;;;;;5023904;28;20032;-78
2021/07/30 00:04:24;;;;;;;5.95;2.40;;;;;;;;;;5022341;28;20036;-78
2021/07/30 00:06:49;;;;;;;4.82;2.50;;;;;;;;;;5025496;28;20048;-78
2021/07/30 00:09:15;;;;;;;5.75;2.40;;;;;;;;;;5034956;28;20033;-78
2021/07/30 00:11:42;;;;;;;6.10;2.30;;;;;;;;;;5052000;28;20029;-78
2021/07/30 00:14:08;;;;;;;3.72;2.20;;;;;;;;;;5035077;28;20053;-78
2021/07/30 00:16:34;;;;;;;7.63;2.40;;;;;;;;;;5035409;28;20051;-78
2021/07/30 00:18:59;;;;;;;7.05;2.85;;;;;;;;;;5035435;28;20464;-78
2021/07/30 00:21:24;;;;;;;3.90;2.20;;;;;;;;;;5035343;28;20048;-78
2021/07/30 00:23:50;;;;;;;4.97;2.30;;;;;;;;;;5053023;28;20470;-78
2021/07/30 00:26:15;;;;;;;4.85;2.40;;;;;;;;;;5055133;28;20259;-78
2021/07/30 00:28:40;;;;;;;5.95;2.55;;;;;;;;;;5038227;28;20025;-78
2021/07/30 00:31:05;;;;;;;3.67;2.30;;;;;;;;;;5037296;28;20416;-78
2021/07/30 00:33:33;;;;;;;4.75;2.40;;;;;;;;;;5054947;28;20462;-78
2021/07/30 00:35:58;;;;;;;4.18;2.38;;;;;;;;;;5054985;28;20024;-78
2021/07/30 00:38:23;;;;;;;4.10;2.43;;;;;;;;;;5055071;28;20021;-78
2021/07/30 00:40:49;;;;;;;4.73;2.60;;;;;;;;;;5054510;28;20275;-78
2021/07/30 00:43:14;;;;;;;5.85;2.70;;;;;;;;;;5053877;28;20321;-78
2021/07/30 00:45:39;;;;;;;5.88;2.50;;;;;;;;;;5054706;28;20135;-78
2021/07/30 00:48:05;;;;;;;6.07;2.45;;;;;;;;;;5042203;28;20032;-78
2021/07/30 00:50:30;;;;;;;6.10;2.65;;;;;;;;;;5034546;28;20057;-78
2021/07/30 00:52:57;;;;;;;4.45;2.60;;;;;;;;;;5042564;28;20041;-78
2021/07/30 00:55:25;;;;;;;7.15;2.47;;;;;;;;;;5045986;28;20025;-78
2021/07/30 00:57:55;;;;;;;5.60;2.72;;;;;;;;;;5016716;28;20026;-78
2021/07/30 01:00:21;;;;;;;6.35;2.55;;;;;;;;;;5052235;28;20418;-79
2021/07/30 01:02:46;;;;;;;6.45;2.90;;;;;;;;;;5053937;28;20100;-78
2021/07/30 01:05:12;;;;;;;7.32;2.60;;;;;;;;;;5036520;28;20351;-78
2021/07/30 01:07:38;;;;;;;5.65;2.55;;;;;;;;;;5054598;28;20017;-78
2021/07/30 01:10:04;;;;;;;5.22;2.55;;;;;;;;;;5045547;28;20033;-78
2021/07/30 01:12:29;;;;;;;4.65;2.53;;;;;;;;;;5034286;28;20044;-78
2021/07/30 01:14:57;;;;;;;6.95;2.80;;;;;;;;;;5029792;28;20031;-78
2021/07/30 01:17:27;;;;;;;3.90;2.45;;;;;;;;;;5052822;28;20033;-78
2021/07/30 01:19:52;;;;;;;4.88;2.85;;;;;;;;;;5033972;28;20021;-78
2021/07/30 01:22:27;;;;;;;6.80;2.47;;;;;;;;;;5034061;28;20021;-78
2021/07/30 01:24:52;;;;;;;5.85;2.67;;;;;;;;;;5051292;28;20106;-78
2021/07/30 01:27:20;;;;;;;4.53;2.72;;;;;;;;;;5054072;28;20056;-78
2021/07/30 01:29:45;;;;;;;5.18;2.33;;;;;;;;;;5053155;28;20028;-78
2021/07/30 01:32:11;;;;;;;7.70;3.00;;;;;;;;;;5051067;28;20478;-78
2021/07/30 01:34:36;;;;;;;7.80;2.35;;;;;;;;;;5048519;28;20025;-78
2021/07/30 01:37:01;;;;;;;6.47;2.85;;;;;;;;;;5053427;28;20095;-78
2021/07/30 01:39:26;;;;;;;7.07;2.70;;;;;;;;;;5052769;28;20021;-78
2021/07/30 01:41:52;;;;;;;5.05;2.72;;;;;;;;;;5036323;28;20040;-78
2021/07/30 01:44:22;;;;;;;4.83;2.73;;;;;;;;;;5053896;28;20428;-78
2021/07/30 01:46:48;;;;;;;4.38;2.70;;;;;;;;;;5047854;28;20260;-78
2021/07/30 01:49:15;;;;;;;5.07;2.63;;;;;;;;;;5033534;28;20022;-78
2021/07/30 01:51:41;;;;;;;5.82;2.63;;;;;;;;;;5036838;28;20044;-78
2021/07/30 01:54:09;;;;;;;6.20;2.53;;;;;;;;;;5043496;28;20440;-78
2021/07/30 01:56:34;;;;;;;3.60;2.63;;;;;;;;;;5033317;28;20303;-78
2021/07/30 01:58:59;;;;;;;4.43;2.58;;;;;;;;;;5032851;28;20053;-79
2021/07/30 02:01:25;;;;;;;8.50;3.35;;;;;;;;;;5033638;28;20096;-78
2021/07/30 02:03:50;;;;;;;5.60;2.90;;;;;;;;;;5033288;28;20017;-78
2021/07/30 02:06:15;;;;;;;5.75;2.67;;;;;;;;;;5052273;28;20060;-78
2021/07/30 02:08:43;;;;;;;8.27;3.15;;;;;;;;;;5053191;28;20025;-78
2021/07/30 02:11:11;;;;;;;5.95;2.90;;;;;;;;;;5035573;28;20017;-78
2021/07/30 02:16:23;;;;;;;8.48;2.60;;;;;;;;;;5033692;28;20055;-78
2021/07/30 02:18:49;;;;;;;5.72;2.95;;;;;;;;;;5048492;28;20658;-78
2021/07/30 02:21:15;;;;;;;7.00;2.90;;;;;;;;;;5033348;28;20033;-78
2021/07/30 02:23:40;;;;;;;6.72;3.22;;;;;;;;;;5033346;28;20018;-78
2021/07/30 02:26:07;;;;;;;4.47;2.80;;;;;;;;;;5033195;28;20033;-78
2021/07/30 02:28:33;;;;;;;8.18;3.08;;;;;;;;;;5033218;28;20017;-78
2021/07/30 02:30:58;;;;;;;6.30;3.07;;;;;;;;;;5015205;28;20018;-78
2021/07/30 02:33:23;;;;;;;3.63;2.80;;;;;;;;;;5033292;28;20258;-78
2021/07/30 02:35:48;;;;;;;4.80;3.10;;;;;;;;;;5033142;28;20278;-78
2021/07/30 02:38:13;;;;;;;7.40;3.07;;;;;;;;;;5037387;28;20709;-78
2021/07/30 02:40:38;;;;;;;4.95;2.92;;;;;;;;;;5019409;28;20295;-78
2021/07/30 02:43:04;;;;;;;5.10;3.30;;;;;;;;;;5051609;28;20199;-78
2021/07/30 02:45:29;;;;;;;7.03;2.93;;;;;;;;;;5057037;28;20279;-78
2021/07/30 02:47:56;;;;;;;6.20;2.95;;;;;;;;;;5050687;28;20351;-78
2021/07/30 02:50:21;;;;;;;6.45;2.90;;;;;;;;;;5037323;28;20033;-78
2021/07/30 02:52:47;;;;;;;4.37;2.77;;;;;;;;;;5036141;28;20041;-78
2021/07/30 02:55:12;;;;;;;2.93;2.60;;;;;;;;;;5036132;28;20637;-78
2021/07/30 02:57:39;;;;;;;4.40;2.72;;;;;;;;;;5037008;28;20706;-78
2021/07/30 03:00:05;;;;;;;4.45;2.92;;;;;;;;;;5036261;28;20363;-78
2021/07/30 03:02:30;;;;;;;5.80;2.65;;;;;;;;;;5052563;28;20108;-78
2021/07/30 03:04:58;;;;;;;4.93;2.70;;;;;;;;;;5049266;28;20029;-78
2021/07/30 03:07:23;;;;;;;7.25;3.00;;;;;;;;;;5056814;28;20551;-78
2021/07/30 03:09:48;;;;;;;4.83;2.93;;;;;;;;;;5056685;28;20175;-78
2021/07/30 03:12:15;;;;;;;4.00;2.90;;;;;;;;;;5055818;28;20289;-78
2021/07/30 03:14:41;;;;;;;4.30;2.90;;;;;;;;;;5056485;28;20386;-78
2021/07/30 03:17:08;;;;;;;6.88;3.03;;;;;;;;;;5056316;28;20025;-78
2021/07/30 03:19:33;;;;;;;5.22;2.83;;;;;;;;;;5056587;28;20029;-78
2021/07/30 03:21:59;;;;;;;5.65;3.30;;;;;;;;;;5054340;28;20481;-78
2021/07/30 03:24:24;;;;;;;5.50;2.88;;;;;;;;;;5036487;28;20022;-78
2021/07/30 03:26:54;;;;;;;6.43;2.97;;;;;;;;;;5036098;28;20029;-78
2021/07/30 03:29:21;;;;;;;6.50;3.05;;;;;;;;;;5036518;28;20025;-78
2021/07/30 03:31:47;;;;;;;5.85;3.08;;;;;;;;;;5049901;28;20028;-78
2021/07/30 03:34:16;;;;;;;4.25;2.72;;;;;;;;;;5038954;28;20026;-78
2021/07/30 03:36:41;;;;;;;6.75;3.33;;;;;;;;;;5036295;28;20515;-78
2021/07/30 03:39:07;;;;;;;4.55;3.30;;;;;;;;;;5050477;28;20124;-78
2021/07/30 03:41:32;;;;;;;3.90;2.65;;;;;;;;;;5056096;28;20015;-78
2021/07/30 03:43:58;;;;;;;3.08;2.70;;;;;;;;;;5056169;28;20013;-78
2021/07/30 03:46:23;;;;;;;7.00;3.08;;;;;;;;;;5055417;28;20016;-78
2021/07/30 03:48:48;;;;;;;7.22;2.92;;;;;;;;;;5055266;28;20028;-78
2021/07/30 03:51:13;;;;;;;7.05;3.47;;;;;;;;;;5055664;28;20056;-78
2021/07/30 03:53:38;;;;;;;5.33;2.90;;;;;;;;;;5056006;28;20406;-78
2021/07/30 03:56:13;;;;;;;6.70;3.33;;;;;;;;;;5048068;28;20279;-78
2021/07/30 03:58:41;;;;;;;4.82;3.03;;;;;;;;;;5035858;28;20292;-78
2021/07/30 04:01:08;;;;;;;6.68;3.25;;;;;;;;;;5041480;28;20018;-78
2021/07/30 04:03:33;;;;;;;4.80;2.97;;;;;;;;;;5035731;28;20020;-78
2021/07/30 04:06:00;;;;;;;8.43;3.00;;;;;;;;;;5041513;28;20021;-78
2021/07/30 04:08:25;;;;;;;4.00;2.90;;;;;;;;;;5035431;28;20572;-78
2021/07/30 04:10:52;;;;;;;6.80;3.00;;;;;;;;;;5052646;28;20032;-78
2021/07/30 04:13:18;;;;;;;5.15;2.80;;;;;;;;;;5054715;28;20290;-78
2021/07/30 04:15:43;;;;;;;5.17;3.17;;;;;;;;;;5037492;28;20042;-78
2021/07/30 04:18:08;;;;;;;8.05;3.30;;;;;;;;;;5054483;28;20285;-78
2021/07/30 04:20:33;;;;;;;7.87;3.20;;;;;;;;;;5054513;28;20405;-78
2021/07/30 04:22:59;;;;;;;7.28;3.60;;;;;;;;;;5055135;28;20728;-77
2021/07/30 04:25:24;;;;;;;6.55;3.25;;;;;;;;;;5055460;28;20443;-78
2021/07/30 04:27:49;;;;;;;6.22;3.30;;;;;;;;;;5054318;28;20082;-78
2021/07/30 04:30:16;;;;;;;7.20;3.33;;;;;;;;;;5054884;28;20390;-78
2021/07/30 04:32:41;;;;;;;9.30;3.38;;;;;;;;;;5054789;28;20263;-82
2021/07/30 04:35:13;;;;;;;4.80;3.00;;;;;;;;;;5054204;28;20407;-82
2021/07/30 04:37:39;;;;;;;4.53;3.30;;;;;;;;;;5037141;28;20267;-73
2021/07/30 04:40:04;;;;;;;10.60;3.30;;;;;;;;;;5054581;28;20352;-73
2021/07/30 04:42:30;;;;;;;4.75;3.10;;;;;;;;;;5052366;28;20622;-73
2021/07/30 04:44:56;;;;;;;7.28;3.10;;;;;;;;;;5053830;28;20029;-73
2021/07/30 04:47:21;;;;;;;4.15;3.17;;;;;;;;;;5036974;28;20032;-74
2021/07/30 04:49:46;;;;;;;7.53;3.10;;;;;;;;;;5051301;28;20025;-73
2021/07/30 04:52:14;;;;;;;5.13;2.95;;;;;;;;;;5053305;28;20303;-73
2021/07/30 04:54:39;;;;;;;4.78;2.92;;;;;;;;;;5053932;28;20017;-73
2021/07/30 04:57:06;;;;;;;7.03;3.23;;;;;;;;;;5054121;28;20087;-73
2021/07/30 04:59:32;;;;;;;8.07;3.08;;;;;;;;;;5053071;28;20291;-73
2021/07/30 05:01:57;;;;;;;5.75;3.00;;;;;;;;;;5053255;28;20020;-73
2021/07/30 05:04:22;;;;;;;5.73;2.90;;;;;;;;;;5036624;28;20082;-73
2021/07/30 05:06:47;;;;;;;5.47;2.90;;;;;;;;;;5049799;28;20267;-74
2021/07/30 05:09:13;;;;;;;7.97;3.25;;;;;;;;;;5050528;28;20702;-74
2021/07/30 05:11:38;;;;;;;4.33;2.90;;;;;;;;;;5033530;28;20013;-74
2021/07/30 05:14:04;;;;;;;3.97;2.83;;;;;;;;;;5050557;28;20305;-74
2021/07/30 05:16:31;;;;;;;4.35;2.88;;;;;;;;;;5049141;28;20760;-75
2021/07/30 05:18:58;;;;;;;5.93;3.17;;;;;;;;;;5054196;28;20048;-74
2021/07/30 05:21:24;;;;;;;10.98;3.40;;;;;;;;;;5051249;28;20459;-74
2021/07/30 05:23:49;;;;;;;8.77;3.08;;;;;;;;;;5053498;28;20047;-74
2021/07/30 05:26:14;;;;;;;4.35;2.97;;;;;;;;;;5053621;28;20021;-74
2021/07/30 05:28:40;;;;;;;4.70;2.92;;;;;;;;;;5046473;28;20552;-74
2021/07/30 05:31:12;;;;;;;10.77;3.28;;;;;;;;;;5050377;28;20023;-74
2021/07/30 05:33:37;;;;;;;5.68;2.90;;;;;;;;;;5044628;28;20013;-74
2021/07/30 05:36:03;;;;;;;4.45;2.50;;;;;;;;;;5053488;28;20009;-74
2021/07/30 05:38:28;;;;;;;5.55;2.75;;;;;;;;;;5052949;28;20021;-74
2021/07/30 05:40:53;;;;;;;5.10;2.83;;;;;;;;;;5052528;28;20039;-73
2021/07/30 05:43:18;;;;;;;5.93;3.00;;;;;;;;;;5053445;28;20263;-74
2021/07/30 05:45:46;;;;;;;6.25;2.67;;;;;;;;;;5042705;28;20029;-79
2021/07/30 05:48:11;;;;;;;4.68;2.97;;;;;;;;;;5031870;28;20447;-79
2021/07/30 05:50:36;;;;;;;4.97;2.60;;;;;;;;;;5035167;28;20035;-78
2021/07/30 05:53:04;;;;;;;4.05;2.90;;;;;;;;;;5053759;28;20456;-83
2021/07/30 05:55:29;;;;;;;4.93;2.90;;;;;;;;;;5052763;28;20040;-81
2021/07/30 05:57:55;;;;;;;5.43;2.95;;;;;;;;;;5053508;28;20388;-81
2021/07/30 06:00:20;;;;;;;4.57;2.65;;;;;;;;;;5052682;28;20029;-80
2021/07/30 06:02:46;;;;;;;7.85;2.90;;;;;;;;;;5035537;28;20482;-81
2021/07/30 06:05:11;;;;;;;6.32;3.10;;;;;;;;;;5035080;28;20028;-81
2021/07/30 06:07:36;;;;;;;5.00;2.60;;;;;;;;;;5051088;28;20040;-78
2021/07/30 06:10:02;;;;;;;6.03;2.55;;;;;;;;;;5024198;28;20025;-80
2021/07/30 06:12:28;;;;;;;6.13;2.90;;;;;;;;;;5067249;28;20059;-80
2021/07/30 06:14:53;;;;;;;9.05;3.05;;;;;;;;;;5030178;28;20016;-80
2021/07/30 06:17:21;;;;;;;7.90;2.90;;;;;;;;;;5022850;28;20025;-81
2021/07/30 06:19:46;;;;;;;5.25;2.90;;;;;;;;;;5029273;28;20040;-81
2021/07/30 06:22:11;;;;;;;4.65;2.80;;;;;;;;;;5021055;28;20435;-81
2021/07/30 06:24:38;;;;;;;4.68;2.85;;;;;;;;;;5028931;28;20025;-81
2021/07/30 06:27:05;;;;;;;4.95;2.80;;;;;;;;;;5033876;28;20108;-81
2021/07/30 06:29:31;;;;;;;8.68;2.60;;;;;;;;;;5028916;28;20025;-80
2021/07/30 06:31:56;;;;;;;6.28;2.70;;;;;;;;;;5033727;28;20025;-80
2021/07/30 06:34:24;;;;;;;8.68;2.90;;;;;;;;;;5024262;28;20045;-74
2021/07/30 06:36:53;;;;;;;4.03;2.50;;;;;;;;;;5029763;28;20037;-73
2021/07/30 06:39:19;;;;;;;4.28;2.55;;;;;;;;;;5034450;28;20017;-73
2021/07/30 06:41:44;;;;;;;8.50;2.97;;;;;;;;;;5026672;28;20048;-74
2021/07/30 06:44:10;;;;;;;4.40;2.70;;;;;;;;;;5033276;28;20017;-72
2021/07/30 06:46:35;;;;;;;5.65;2.75;;;;;;;;;;5031409;28;20036;-74
2021/07/30 06:49:00;;;;;;;6.38;2.40;;;;;;;;;;5024023;28;20025;-74
2021/07/30 06:51:28;;;;;;;4.57;2.60;;;;;;;;;;5023406;28;20511;-74
2021/07/30 06:53:54;;;;;;;4.25;2.38;;;;;;;;;;5030869;28;20031;-74
2021/07/30 06:56:19;;;;;;;6.82;2.63;;;;;;;;;;5028223;28;20025;-74
2021/07/30 06:58:46;;;;;;;4.75;2.30;;;;;;;;;;5035107;28;20372;-74
2021/07/30 07:01:11;;;;;;;5.28;2.58;;;;;;;;;;5028145;28;20468;-74
2021/07/30 07:03:36;;;;;;;4.43;2.60;;;;;;;;;;5037413;28;20040;-74
2021/07/30 07:06:01;;;;;;;7.53;2.90;;;;;;;;;;5046194;28;20262;-75
2021/07/30 07:08:26;;;;;;;6.75;3.83;;;;;;;;;;5028198;28;20279;-74
2021/07/30 07:10:52;;;;;;;9.02;5.60;;;;;;;;;;5027595;28;20028;-74
2021/07/30 07:13:43;;;;;;;12.65;7.43;;;;;;;;;;5022384;28;20442;-74
2021/07/30 07:16:08;;;;;;;5.70;2.78;;;;;;;;;;5024043;28;20403;-73
2021/07/30 07:18:33;;;;;;;3.45;2.42;;;;;;;;;;5032481;28;20013;-74
2021/07/30 07:20:59;;;;;;;6.53;2.80;;;;;;;;;;5023208;28;20423;-78
2021/07/30 07:23:24;;;;;;;4.15;2.15;;;;;;;;;;5039341;28;20045;-78
2021/07/30 07:25:49;;;;;;;5.03;2.40;;;;;;;;;;5035627;28;20079;-77
2021/07/30 07:28:15;;;;;;;6.72;2.50;;;;;;;;;;5029185;28;20116;-78
2021/07/30 07:30:40;;;;;;;4.35;2.30;;;;;;;;;;5021926;28;20471;-78
2021/07/30 07:33:05;;;;;;;3.92;2.38;;;;;;;;;;5022813;28;20037;-78
2021/07/30 07:35:31;;;;;;;4.68;2.50;;;;;;;;;;5037711;28;20087;-78
2021/07/30 07:38:00;;;;;;;10.27;2.70;;;;;;;;;;5036172;28;20021;-77
2021/07/30 07:40:30;;;;;;;4.78;2.70;;;;;;;;;;5034414;28;20366;-77
2021/07/30 07:42:58;;;;;;;8.43;2.58;;;;;;;;;;5031572;28;20023;-78
2021/07/30 07:45:24;;;;;;;4.95;2.55;;;;;;;;;;5029445;28;20075;-78
2021/07/30 07:47:52;;;;;;;6.97;2.45;;;;;;;;;;5030865;28;20029;-77
2021/07/30 07:50:17;;;;;;;4.78;2.22;;;;;;;;;;5036364;28;20423;-77
2021/07/30 07:52:42;;;;;;;5.07;2.40;;;;;;;;;;5031041;28;20128;-78
2021/07/30 07:55:08;;;;;;;9.07;2.37;;;;;;;;;;5027894;28;20036;-78
2021/07/30 07:57:33;;;;;;;5.05;2.30;;;;;;;;;;5043536;28;20259;-77
2021/07/30 07:59:59;;;;;;;5.75;2.45;;;;;;;;;;5037585;28;20107;-78
2021/07/30 08:02:24;;;;;;;7.30;2.10;;;;;;;;;;5038462;28;20021;-77
2021/07/30 08:04:49;;;;;;;8.35;2.50;;;;;;;;;;5030817;28;20048;-77
2021/07/30 08:07:17;;;;;;;4.55;2.47;;;;;;;;;;5029846;28;20009;-76
2021/07/30 08:09:42;;;;;;;9.75;2.38;;;;;;;;;;5045224;28;20024;-76
2021/07/30 08:12:08;;;;;;;6.95;2.30;;;;;;;;;;5031065;28;20515;-77
2021/07/30 08:14:33;;;;;;;33.77;4.47;;;;;;;;;;5027665;28;20539;-77
2021/07/30 08:16:58;;;;;;;8.20;2.00;;;;;;;;;;5031164;28;20334;-77
2021/07/30 08:19:23;;;;;;;3.30;1.77;;;;;;;;;;5036148;28;20078;-76
2021/07/30 08:21:48;;;;;;;7.87;2.10;;;;;;;;;;5030991;28;20013;-76
2021/07/30 08:24:14;;;;;;;3.90;1.87;;;;;;;;;;5042217;28;20248;-76
2021/07/30 08:26:41;;;;;;;3.67;1.77;;;;;;;;;;5039814;28;20264;-76
2021/07/30 08:29:07;;;;;;;7.35;1.88;;;;;;;;;;5025738;28;20029;-83
2021/07/30 08:31:32;;;;;;;4.90;1.95;;;;;;;;;;5026817;28;20028;-73
2021/07/30 08:33:57;;;;;;;6.50;2.20;;;;;;;;;;5042674;28;20052;-74
2021/07/30 08:36:22;;;;;;;3.28;1.40;;;;;;;;;;5033469;28;20353;-73
2021/07/30 08:38:50;;;;;;;5.07;1.70;;;;;;;;;;5050955;28;20082;-72
2021/07/30 08:41:18;;;;;;;6.13;1.90;;;;;;;;;;5035213;28;20025;-73
2021/07/30 08:43:44;;;;;;;3.13;1.63;;;;;;;;;;5050709;28;20466;-73
2021/07/30 08:46:10;;;;;;;2.80;1.60;;;;;;;;;;5051366;28;20029;-73
2021/07/30 08:48:35;;;;;;;4.95;1.98;;;;;;;;;;5032143;28;20263;-73
2021/07/30 08:51:02;;;;;;;6.65;2.10;;;;;;;;;;5032366;28;20017;-73
2021/07/30 08:53:27;;;;;;;4.28;2.40;;;;;;;;;;5029001;28;20100;-74
2021/07/30 08:55:53;;;;;;;4.63;1.80;;;;;;;;;;5049884;28;20100;-74
2021/07/30 08:58:18;;;;;;;2.63;1.48;;;;;;;;;;5047832;28;20029;-74
2021/07/30 09:00:44;;;;;;;5.10;1.67;;;;;;;;;;5051509;28;20073;-74
2021/07/30 09:03:09;;;;;;;5.43;2.00;;;;;;;;;;5022612;28;20033;-74
2021/07/30 09:05:35;;;;;;;5.35;1.95;;;;;;;;;;5034903;28;20009;-74
2021/07/30 09:08:01;;;;;;;5.63;1.80;;;;;;;;;;5036792;28;20351;-74
2021/07/30 09:10:27;;;;;;;4.85;1.77;;;;;;;;;;5053751;28;20163;-75
2021/07/30 09:13:09;;;;;;;4.30;2.00;;;;;;;;;;5036554;28;20099;-75
2021/07/30 09:15:34;;;;;;;6.90;2.13;;;;;;;;;;5029672;28;20499;-75
2021/07/30 09:17:59;;;;;;;5.87;1.60;;;;;;;;;;5036415;28;20158;-74
2021/07/30 09:20:24;;;;;;;6.27;2.33;;;;;;;;;;5047573;28;20021;-74
2021/07/30 09:22:50;;;;;;;4.88;1.90;;;;;;;;;;5030143;28;20283;-74
2021/07/30 09:25:32;;;;;;;4.53;1.80;;;;;;;;;;5035010;28;20039;-74
2021/07/30 09:28:05;;;;;;;5.53;1.80;;;;;;;;;;5050573;28;20092;-74
2021/07/30 09:30:30;;;;;;;4.47;1.70;;;;;;;;;;5025022;28;20055;-74
2021/07/30 09:32:59;;;;;;;3.15;1.70;;;;;;;;;;5051418;28;20063;-74
2021/07/30 09:35:24;;;;;;;6.18;1.90;;;;;;;;;;5028418;28;20098;-74
2021/07/30 09:38:08;;;;;;;3.77;2.10;;;;;;;;;;5036068;28;20061;-74
2021/07/30 09:40:33;;;;;;;3.17;1.75;;;;;;;;;;5022725;28;20287;-74
2021/07/30 09:43:20;;;;;;;4.03;1.48;;;;;;;;;;5047133;28;20494;-74
2021/07/30 09:45:46;;;;;;;5.75;1.83;;;;;;;;;;5029489;28;20013;-74
2021/07/30 09:48:13;;;;;;;3.63;1.83;;;;;;;;;;5034371;28;20044;-74
2021/07/30 09:50:38;;;;;;;3.90;1.60;;;;;;;;;;5026528;28;20407;-74
2021/07/30 09:53:06;;;;;;;6.07;2.10;;;;;;;;;;5027753;28;20444;-74
2021/07/30 09:55:32;;;;;;;3.40;1.83;;;;;;;;;;5033243;28;20039;-74
2021/07/30 09:57:58;;;;;;;3.28;1.95;;;;;;;;;;5035842;28;20044;-74
2021/07/30 10:00:23;;;;;;;6.72;1.80;;;;;;;;;;5050963;28;20104;-74
2021/07/30 10:02:49;;;;;;;8.43;2.15;;;;;;;;;;5030331;28;20078;-74
2021/07/30 10:05:15;;;;;;;4.90;1.90;;;;;;;;;;5032998;28;20021;-74
2021/07/30 10:07:46;;;;;;;5.43;1.50;;;;;;;;;;5047851;28;20083;-74
2021/07/30 10:10:21;;;;;;;3.72;1.70;;;;;;;;;;5047093;28;20032;-74
2021/07/30 10:12:53;;;;;;;3.63;2.00;;;;;;;;;;5023309;28;20024;-74
2021/07/30 10:15:20;;;;;;;4.80;1.95;;;;;;;;;;5035214;28;20078;-74
2021/07/30 10:17:46;;;;;;;4.22;1.63;;;;;;;;;;5033028;28;20029;-74
2021/07/30 10:20:13;;;;;;;2.58;1.60;;;;;;;;;;5046840;28;20022;-74
2021/07/30 10:22:40;;;;;;;5.68;2.00;;;;;;;;;;5018000;28;20159;-74
2021/07/30 10:25:07;;;;;;;3.47;1.60;;;;;;;;;;5017407;28;20006;-74
2021/07/30 10:27:33;;;;;;;5.68;2.08;;;;;;;;;;5016641;28;20028;-74
2021/07/30 10:30:05;;;;;;;4.72;1.70;;;;;;;;;;5044548;28;20017;-74
2021/07/30 10:32:50;;;;;;;4.82;1.83;;;;;;;;;;5032287;28;20021;-74
2021/07/30 10:35:16;;;;;;;4.45;1.70;;;;;;;;;;5043475;28;20044;-74
2021/07/30 10:37:47;;;;;;;3.50;1.80;;;;;;;;;;5072352;28;20162;-74
2021/07/30 10:40:13;;;;;;;3.53;2.00;;;;;;;;;;5053740;28;20083;-74
2021/07/30 10:43:02;;;;;;;2.70;1.75;;;;;;;;;;5052626;28;20017;-75
2021/07/30 10:45:28;;;;;;;4.20;1.70;;;;;;;;;;5040768;28;20485;-74
2021/07/30 10:48:11;;;;;;;3.80;1.73;;;;;;;;;;5052969;28;20096;-74
2021/07/30 10:50:59;;;;;;;3.22;2.13;;;;;;;;;;5052707;28;20478;-74
2021/07/30 10:53:37;;;;;;;5.70;1.90;;;;;;;;;;5048098;28;20407;-74
2021/07/30 10:56:03;;;;;;;4.20;1.90;;;;;;;;;;5027101;28;20017;-75
2021/07/30 10:58:40;;;;;;;3.25;1.70;;;;;;;;;;5054049;28;20033;-75
2021/07/30 11:01:06;;;;;;;5.50;1.77;;;;;;;;;;5046308;28;20124;-73
2021/07/30 11:03:54;;;;;;;3.38;2.00;;;;;;;;;;5056337;28;20406;-73
2021/07/30 11:06:28;;;;;;;5.60;1.90;;;;;;;;;;5046559;28;20025;-73
2021/07/30 11:09:17;;;;;;;10.15;2.17;;;;;;;;;;5056394;28;20029;-74
2021/07/30 11:11:49;;;;;;;4.70;1.60;;;;;;;;;;5046604;28;20021;-74
2021/07/30 11:14:20;;;;;;;3.28;1.70;;;;;;;;;;5056219;28;20017;-74
2021/07/30 11:16:49;;;;;;;5.90;1.58;;;;;;;;;;5054098;28;20029;-74
2021/07/30 11:19:15;;;;;;;4.20;1.45;;;;;;;;;;5054178;28;20360;-73
2021/07/30 11:21:41;;;;;;;2.90;1.30;;;;;;;;;;5056495;28;20017;-73
2021/07/30 11:24:06;;;;;;;3.08;1.70;;;;;;;;;;5056598;28;20028;-73
2021/07/30 11:26:37;;;;;;;2.83;1.23;;;;;;;;;;5056582;28;20017;-73
2021/07/30 11:29:06;;;;;;;2.85;1.42;;;;;;;;;;5036885;28;20455;-74
2021/07/30 11:31:31;;;;;;;2.85;1.40;;;;;;;;;;5056287;28;20053;-73
2021/07/30 11:33:56;;;;;;;2.85;1.60;;;;;;;;;;5050274;28;20118;-73
2021/07/30 11:36:22;;;;;;;3.00;1.70;;;;;;;;;;5055507;28;20355;-73
2021/07/30 11:38:51;;;;;;;3.25;1.40;;;;;;;;;;5055875;28;20021;-73
2021/07/30 11:41:17;;;;;;;5.68;1.80;;;;;;;;;;5048325;28;20138;-73
2021/07/30 11:44:01;;;;;;;2.33;1.60;;;;;;;;;;5029838;28;20523;-73
2021/07/30 11:46:27;;;;;;;3.90;1.75;;;;;;;;;;5051569;28;20013;-75
2021/07/30 11:48:53;;;;;;;5.82;1.50;;;;;;;;;;5055215;28;20016;-73
2021/07/30 11:51:19;;;;;;;3.63;1.50;;;;;;;;;;5051859;28;20049;-73
2021/07/30 11:53:45;;;;;;;5.22;1.58;;;;;;;;;;5049392;28;20013;-74
2021/07/30 11:56:10;;;;;;;2.10;1.52;;;;;;;;;;5047919;28;20017;-73
2021/07/30 11:58:35;;;;;;;4.80;1.70;;;;;;;;;;5054265;28;20079;-73
2021/07/30 12:01:10;;;;;;;3.27;1.70;;;;;;;;;;5045291;28;20095;-73
2021/07/30 12:03:35;;;;;;;4.80;1.83;;;;;;;;;;5037206;28;20021;-73
2021/07/30 12:06:01;;;;;;;4.33;1.60;;;;;;;;;;5047388;28;20086;-73
2021/07/30 12:11:42;;;;;;;2.85;1.35;;;;;;;;;;5045497;28;20070;-74
2021/07/30 12:14:14;;;;;;;3.58;1.60;;;;;;;;;;5030524;28;20374;-74
2021/07/30 12:16:40;;;;;;;3.08;1.30;;;;;;;;;;5028262;28;20013;-73
2021/07/30 12:19:09;;;;;;;2.45;1.40;;;;;;;;;;5030943;28;20391;-74
2021/07/30 12:21:34;;;;;;;1.88;1.30;;;;;;;;;;5026824;28;20104;-75
2021/07/30 12:24:26;;;;;;;2.97;1.30;;;;;;;;;;5031850;28;20113;-74
2021/07/30 12:27:10;;;;;;;;;;;;;;;;;;;;;
2021/07/30 12:29:37;;;;;;;4.30;1.30;;;;;;;;;;5054168;28;20350;-74
2021/07/30 12:32:36;;;;;;;6.38;1.30;;;;;;;;;;5036646;28;20109;-74
2021/07/30 12:35:11;;;;;;;3.08;1.40;;;;;;;;;;5036151;28;20036;-74
2021/07/30 12:37:38;;;;;;;6.75;1.50;;;;;;;;;;5039744;28;20017;-73
2021/07/30 12:40:05;;;;;;;2.00;1.50;;;;;;;;;;5047378;28;20020;-73
2021/07/30 12:42:31;;;;;;;3.90;1.42;;;;;;;;;;5036782;28;20024;-73
2021/07/30 12:45:01;;;;;;;2.65;1.40;;;;;;;;;;5031285;28;20029;-74
2021/07/30 12:47:27;;;;;;;4.32;1.27;;;;;;;;;;5036302;28;20118;-74
2021/07/30 12:49:52;;;;;;;3.38;1.27;;;;;;;;;;5049017;28;20451;-74
2021/07/30 12:52:20;;;;;;;3.63;2.53;;;;;;;;;;5050230;28;20032;-74
2021/07/30 12:54:46;;;;;;;3.05;1.50;;;;;;;;;;5035996;28;20272;-74
2021/07/30 12:57:12;;;;;;;2.83;1.40;;;;;;;;;;5035456;28;20018;-74
2021/07/30 12:59:49;;;;;;;5.65;1.38;;;;;;;;;;5029672;28;20036;-74
2021/07/30 13:02:15;;;;;;;3.20;1.42;;;;;;;;;;5030512;28;20049;-73
2021/07/30 13:04:41;;;;;;;2.65;1.55;;;;;;;;;;5036638;28;20016;-73
2021/07/30 13:07:07;;;;;;;6.23;1.30;;;;;;;;;;5040101;28;20443;-75
2021/07/30 13:09:32;;;;;;;4.22;1.70;;;;;;;;;;5042363;28;20078;-75
2021/07/30 13:11:58;;;;;;;2.20;1.43;;;;;;;;;;5050860;28;20435;-76
2021/07/30 13:14:23;;;;;;;2.13;1.23;;;;;;;;;;5032089;28;20260;-76
2021/07/30 13:16:48;;;;;;;2.97;1.30;;;;;;;;;;5050974;28;20009;-75
2021/07/30 13:19:13;;;;;;;2.30;1.33;;;;;;;;;;5024845;28;20053;-76
2021/07/30 13:21:38;;;;;;;2.47;1.50;;;;;;;;;;5045950;28;20441;-75
2021/07/30 13:24:05;;;;;;;4.27;1.70;;;;;;;;;;5054030;28;20021;-75
2021/07/30 13:26:31;;;;;;;5.18;1.92;;;;;;;;;;5030888;28;20063;-77
2021/07/30 13:28:56;;;;;;;2.97;1.90;;;;;;;;;;5033078;28;20045;-76
2021/07/30 13:31:24;;;;;;;3.77;1.60;;;;;;;;;;5027003;28;20021;-76
2021/07/30 13:33:49;;;;;;;4.00;1.52;;;;;;;;;;5046624;28;20249;-76
2021/07/30 13:36:14;;;;;;;2.37;1.50;;;;;;;;;;5034141;28;20340;-75
2021/07/30 13:38:39;;;;;;;4.63;1.60;;;;;;;;;;5049291;28;20248;-75
2021/07/30 13:41:13;;;;;;;5.13;2.03;;;;;;;;;;5049680;28;20027;-75
2021/07/30 13:43:39;;;;;;;5.53;1.88;;;;;;;;;;5040852;28;20022;-75
2021/07/30 13:46:05;;;;;;;4.88;1.90;;;;;;;;;;5039060;28;20025;-76
2021/07/30 13:48:31;;;;;;;2.65;1.60;;;;;;;;;;5053143;28;20111;-76
2021/07/30 13:51:02;;;;;;;7.47;2.10;;;;;;;;;;5032460;28;20018;-74
2021/07/30 13:53:31;;;;;;;2.55;1.90;;;;;;;;;;5035175;28;20107;-74
2021/07/30 13:55:59;;;;;;;4.60;1.70;;;;;;;;;;5050023;28;20017;-74
2021/07/30 13:58:25;;;;;;;3.92;1.63;;;;;;;;;;5052814;28;20092;-74
2021/07/30 14:00:53;;;;;;;6.25;2.08;;;;;;;;;;5030802;28;20131;-75
2021/07/30 14:03:21;;;;;;;3.10;1.80;;;;;;;;;;5026290;28;20021;-75
2021/07/30 14:05:49;;;;;;;3.05;1.60;;;;;;;;;;5031682;28;20021;-75
2021/07/30 14:08:17;;;;;;;1.75;1.52;;;;;;;;;;5028219;28;20397;-75
2021/07/30 14:10:45;;;;;;;2.65;1.60;;;;;;;;;;5031294;28;20099;-75
2021/07/30 14:13:11;;;;;;;5.10;1.90;;;;;;;;;;5026814;28;20026;-74
2021/07/30 14:15:36;;;;;;;4.60;1.95;;;;;;;;;;5020413;28;20102;-74
2021/07/30 14:18:08;;;;;;;6.30;2.03;;;;;;;;;;5022498;28;20028;-74
2021/07/30 14:20:33;;;;;;;3.60;1.95;;;;;;;;;;5023382;28;20243;-74
2021/07/30 14:22:59;;;;;;;2.83;1.90;;;;;;;;;;5022989;28;20068;-74
2021/07/30 14:25:24;;;;;;;2.40;1.77;;;;;;;;;;5034279;28;20045;-75
2021/07/30 14:27:50;;;;;;;2.63;1.97;;;;;;;;;;5040143;28;20392;-75
2021/07/30 14:30:15;;;;;;;3.13;1.77;;;;;;;;;;5027061;28;20284;-74
2021/07/30 14:32:41;;;;;;;2.75;2.00;;;;;;;;;;5056751;28;20032;-74
2021/07/30 14:35:07;;;;;;;3.50;1.98;;;;;;;;;;5060073;28;20023;-75
2021/07/30 14:37:32;;;;;;;3.40;1.83;;;;;;;;;;5060125;28;20040;-74
2021/07/30 14:39:57;;;;;;;4.20;1.73;;;;;;;;;;5033069;28;20021;-75
2021/07/30 14:42:22;;;;;;;4.17;2.23;;;;;;;;;;5037809;28;20499;-75
2021/07/30 14:44:48;;;;;;;3.73;2.33;;;;;;;;;;5042150;28;20263;-75
2021/07/30 14:47:13;;;;;;;5.47;2.30;;;;;;;;;;5042543;28;20263;-75
2021/07/30 14:49:41;;;;;;;5.05;1.90;;;;;;;;;;5059886;28;20294;-75